createdAt,value
2022-07-29T00:01:02.279Z,0.90
2022-07-29T00:03:28.749Z,0.93
2022-07-29T00:05:55.247Z,0.82
2022-07-29T00:08:21.748Z,1.00
2022-07-29T00:10:48.537Z,1.00
2022-07-29T00:13:15.215Z,1.02
2022-07-29T00:15:41.796Z,0.80
2022-07-29T00:18:08.391Z,1.15
2022-07-29T00:20:34.926Z,0.80
2022-07-29T00:23:01.497Z,0.85
2022-07-29T00:25:28.068Z,0.70
2022-07-29T00:27:54.572Z,0.90
2022-07-29T00:30:21.189Z,0.80
2022-07-29T00:32:47.679Z,0.80
2022-07-29T00:35:32.578Z,0.70
2022-07-29T00:38:00.177Z,0.90
2022-07-29T00:40:28.660Z,0.98
2022-07-29T00:42:55.232Z,0.88
2022-07-29T00:45:23.175Z,0.82
2022-07-29T00:47:50.116Z,0.90
2022-07-29T00:50:17.104Z,0.90
2022-07-29T00:52:43.987Z,0.80
2022-07-29T00:55:14.629Z,0.95
2022-07-29T00:57:42.464Z,0.95
2022-07-29T01:00:12.060Z,1.10
2022-07-29T01:02:38.662Z,1.00
2022-07-29T01:05:06.794Z,0.80
2022-07-29T01:07:37.960Z,0.80
2022-07-29T01:10:05.722Z,0.90
2022-07-29T01:12:34.511Z,0.90
2022-07-29T01:15:07.504Z,0.98
2022-07-29T01:17:52.501Z,1.00
2022-07-29T01:20:38.749Z,1.10
2022-07-29T01:23:08.043Z,1.00
2022-07-29T01:25:43.501Z,0.82
2022-07-29T01:28:29.586Z,1.00
2022-07-29T01:30:57.432Z,0.90
2022-07-29T01:33:44.724Z,1.02
2022-07-29T01:36:15.635Z,0.80
2022-07-29T01:38:46.446Z,0.80
2022-07-29T01:41:18.497Z,0.90
2022-07-29T01:43:51.358Z,0.80
2022-07-29T01:46:24.044Z,1.00
2022-07-29T01:48:56.323Z,0.85
2022-07-29T01:51:29.192Z,0.88
2022-07-29T01:54:14.231Z,1.00
2022-07-29T01:56:43.437Z,0.80
2022-07-29T01:59:11.462Z,0.70
2022-07-29T02:01:41.136Z,0.85
2022-07-29T02:04:10.962Z,0.80
2022-07-29T02:06:41.612Z,0.95
2022-07-29T02:09:09.471Z,0.82
2022-07-29T02:11:38.619Z,0.90
2022-07-29T02:14:06.702Z,1.08
2022-07-29T02:16:41.627Z,0.90
2022-07-29T02:19:09.761Z,0.80
2022-07-29T02:21:36.984Z,0.90
2022-07-29T02:24:05.071Z,1.00
2022-07-29T02:26:33.292Z,0.90
2022-07-29T02:29:01.150Z,0.80
2022-07-29T02:31:33.512Z,0.80
2022-07-29T02:34:04.393Z,0.80
2022-07-29T02:36:32.918Z,1.13
2022-07-29T02:39:01.808Z,0.93
2022-07-29T02:41:48.111Z,1.00
2022-07-29T02:44:18.063Z,0.90
2022-07-29T02:46:51.161Z,0.70
2022-07-29T02:49:32.997Z,0.77
2022-07-29T02:52:02.588Z,0.90
2022-07-29T02:54:38.798Z,0.98
2022-07-29T02:57:11.955Z,0.85
2022-07-29T02:59:41.950Z,0.90
2022-07-29T03:02:10.810Z,1.10
2022-07-29T03:04:40.897Z,0.90
2022-07-29T03:07:07.969Z,1.10
2022-07-29T03:09:35.162Z,1.00
2022-07-29T03:12:02.686Z,0.90
2022-07-29T03:14:29.490Z,1.00
2022-07-29T03:16:56.514Z,0.88
2022-07-29T03:19:23.274Z,0.88
2022-07-29T03:21:50.235Z,0.90
2022-07-29T03:24:37.698Z,0.90
2022-07-29T03:27:05.127Z,1.00
2022-07-29T03:29:33.831Z,1.05
2022-07-29T03:32:03.383Z,0.93
2022-07-29T03:34:30.876Z,0.82
2022-07-29T03:36:57.417Z,1.02
2022-07-29T03:39:28.068Z,1.05
2022-07-29T03:41:57.924Z,1.00
2022-07-29T03:44:26.806Z,1.05
2022-07-29T03:46:56.572Z,0.93
2022-07-29T03:49:24.930Z,0.93
2022-07-29T03:51:51.563Z,0.90
2022-07-29T03:54:18.522Z,1.20
2022-07-29T03:56:48.578Z,1.23
2022-07-29T03:59:16.757Z,1.10
2022-07-29T04:01:44.203Z,1.10
2022-07-29T04:04:11.306Z,0.95
2022-07-29T04:06:42.138Z,0.98
2022-07-29T04:09:09.793Z,0.90
2022-07-29T04:11:57.106Z,1.13
2022-07-29T04:14:25.338Z,1.00
2022-07-29T04:16:51.866Z,1.02
2022-07-29T04:19:18.319Z,1.00
2022-07-29T04:21:46.205Z,1.08
2022-07-29T04:24:12.822Z,0.98
2022-07-29T04:26:39.559Z,1.13
2022-07-29T04:29:06.121Z,1.20
2022-07-29T04:31:32.693Z,1.00
2022-07-29T04:33:59.185Z,1.10
2022-07-29T04:36:28.857Z,1.20
2022-07-29T04:38:56.262Z,1.20
2022-07-29T04:41:22.733Z,1.10
2022-07-29T04:43:49.937Z,1.00
2022-07-29T04:46:16.892Z,1.02
2022-07-29T04:48:43.503Z,1.00
2022-07-29T04:51:10.059Z,1.25
2022-07-29T04:53:36.541Z,1.08
2022-07-29T04:56:03.539Z,1.00
2022-07-29T04:58:30.027Z,1.10
2022-07-29T05:00:56.557Z,1.20
2022-07-29T05:03:23.193Z,0.98
2022-07-29T05:05:49.666Z,1.00
2022-07-29T05:08:16.136Z,1.00
2022-07-29T05:10:42.636Z,1.10
2022-07-29T05:13:09.188Z,1.10
2022-07-29T05:15:36.876Z,1.20
2022-07-29T05:18:04.585Z,1.10
2022-07-29T05:20:31.668Z,1.30
2022-07-29T05:22:59.739Z,1.10
2022-07-29T05:25:43.069Z,1.20
2022-07-29T05:28:11.644Z,1.40
2022-07-29T05:30:38.206Z,1.40
2022-07-29T05:33:04.726Z,1.10
2022-07-29T05:35:31.249Z,1.00
2022-07-29T05:37:57.763Z,1.10
2022-07-29T05:40:24.270Z,1.65
2022-07-29T05:42:50.746Z,1.10
2022-07-29T05:45:17.233Z,1.25
2022-07-29T05:47:43.733Z,1.30
2022-07-29T05:50:10.417Z,1.20
2022-07-29T05:52:36.892Z,1.30
2022-07-29T05:55:05.341Z,1.15
2022-07-29T05:57:32.423Z,1.30
2022-07-29T05:59:58.882Z,1.45
2022-07-29T06:02:25.367Z,1.20
2022-07-29T06:04:51.947Z,1.10
2022-07-29T06:07:18.580Z,1.30
2022-07-29T06:09:45.274Z,1.30
2022-07-29T06:12:11.755Z,1.63
2022-07-29T06:14:39.242Z,1.42
2022-07-29T06:17:06.683Z,1.27
2022-07-29T06:19:36.239Z,1.10
2022-07-29T06:22:03.009Z,1.05
2022-07-29T06:24:29.499Z,1.17
2022-07-29T06:26:56.177Z,1.08
2022-07-29T06:29:22.645Z,1.20
2022-07-29T06:31:49.222Z,1.25
2022-07-29T06:34:16.612Z,1.20
2022-07-29T06:36:44.272Z,1.10
2022-07-29T06:39:12.290Z,1.30
2022-07-29T06:41:38.980Z,1.30
2022-07-29T06:44:05.743Z,1.25
2022-07-29T06:46:33.175Z,1.40
2022-07-29T06:49:00.008Z,1.33
2022-07-29T06:51:26.619Z,1.25
2022-07-29T06:54:01.653Z,1.30
2022-07-29T06:56:32.580Z,1.30
2022-07-29T06:59:06.705Z,1.30
2022-07-29T07:01:33.295Z,1.40
2022-07-29T07:03:59.865Z,1.10
2022-07-29T07:06:26.495Z,1.45
2022-07-29T07:08:53.033Z,1.55
2022-07-29T07:11:19.586Z,1.23
2022-07-29T07:13:46.245Z,1.25
2022-07-29T07:16:13.477Z,1.10
2022-07-29T07:18:40.018Z,1.10
2022-07-29T07:21:06.761Z,1.27
2022-07-29T07:23:33.284Z,1.23
2022-07-29T07:25:59.810Z,1.40
2022-07-29T07:28:26.272Z,1.20
2022-07-29T07:30:53.015Z,1.20
2022-07-29T07:33:19.868Z,1.38
2022-07-29T07:35:46.537Z,1.35
2022-07-29T07:38:13.569Z,1.20
2022-07-29T07:40:40.152Z,1.10
2022-07-29T07:43:06.664Z,1.20
2022-07-29T07:45:38.098Z,1.38
2022-07-29T07:48:05.438Z,1.27
2022-07-29T07:50:31.991Z,1.30
2022-07-29T07:52:58.990Z,1.10
2022-07-29T07:55:26.880Z,1.23
2022-07-29T07:57:54.349Z,1.27
2022-07-29T08:00:23.045Z,1.30
2022-07-29T08:02:51.147Z,1.25
2022-07-29T08:05:18.416Z,1.30
2022-07-29T08:07:46.826Z,1.42
2022-07-29T08:10:37.662Z,1.30
2022-07-29T08:13:08.734Z,1.45
2022-07-29T08:15:35.977Z,1.20
2022-07-29T08:18:08.028Z,1.73
2022-07-29T08:20:36.551Z,1.33
2022-07-29T08:23:04.029Z,1.67
2022-07-29T08:25:30.633Z,1.08
2022-07-29T08:27:58.240Z,1.13
2022-07-29T08:30:24.795Z,1.20
2022-07-29T08:32:55.047Z,1.00
2022-07-29T08:35:23.601Z,1.27
2022-07-29T08:37:50.156Z,1.20
2022-07-29T08:40:16.852Z,1.20
2022-07-29T08:42:43.598Z,1.10
2022-07-29T08:45:10.751Z,1.20
2022-07-29T08:47:40.806Z,1.20
2022-07-29T08:50:11.182Z,1.17
2022-07-29T08:52:41.984Z,1.20
2022-07-29T08:55:10.698Z,1.20
2022-07-29T08:57:39.953Z,1.30
2022-07-29T09:00:19.603Z,1.20
2022-07-29T09:02:52.641Z,1.42
2022-07-29T09:05:19.925Z,1.30
2022-07-29T09:07:49.028Z,1.35
2022-07-29T09:10:15.679Z,1.30
2022-07-29T09:12:42.302Z,1.30
2022-07-29T09:15:09.222Z,1.35
2022-07-29T09:17:43.625Z,1.20
2022-07-29T09:20:21.906Z,1.35
2022-07-29T09:22:50.308Z,1.33
2022-07-29T09:25:40.338Z,1.20
2022-07-29T09:28:11.706Z,1.20
2022-07-29T09:30:59.271Z,1.23
2022-07-29T09:33:33.974Z,1.52
2022-07-29T09:36:08.497Z,1.20
2022-07-29T09:38:38.547Z,1.42
2022-07-29T09:41:06.899Z,1.20
2022-07-29T09:43:34.463Z,1.63
2022-07-29T09:46:14.622Z,1.45
2022-07-29T09:48:41.619Z,1.20
2022-07-29T09:51:28.300Z,1.40
2022-07-29T09:54:24.012Z,1.40
2022-07-29T09:56:51.151Z,1.30
2022-07-29T09:59:17.976Z,1.13
2022-07-29T10:01:44.762Z,1.40
2022-07-29T10:04:11.287Z,1.10
2022-07-29T10:07:03.569Z,1.23
2022-07-29T10:09:31.437Z,1.20
2022-07-29T10:12:14.608Z,1.20
2022-07-29T10:14:42.293Z,1.20
2022-07-29T10:17:10.293Z,1.30
2022-07-29T10:19:38.944Z,1.10
2022-07-29T10:22:09.856Z,1.10
2022-07-29T10:24:38.461Z,1.30
2022-07-29T10:27:09.069Z,1.20
2022-07-29T10:29:36.780Z,1.00
2022-07-29T10:32:23.008Z,1.35
2022-07-29T10:35:09.559Z,1.33
2022-07-29T10:38:03.953Z,1.10
2022-07-29T10:41:06.848Z,1.20
2022-07-29T10:43:39.113Z,1.10
2022-07-29T10:46:09.917Z,1.20
2022-07-29T10:49:06.349Z,1.15
2022-07-29T10:51:59.896Z,1.27
2022-07-29T10:54:36.236Z,1.10
2022-07-29T10:57:54.540Z,1.00
2022-07-29T11:00:29.589Z,1.20
2022-07-29T11:02:57.622Z,1.30
2022-07-29T11:05:39.965Z,1.13
2022-07-29T11:08:20.377Z,1.23
2022-07-29T11:10:48.655Z,1.20
2022-07-29T11:13:44.282Z,1.05
2022-07-29T11:16:11.331Z,1.52
2022-07-29T11:19:13.199Z,1.30
2022-07-29T11:22:05.166Z,1.13
2022-07-29T11:24:32.057Z,1.60
2022-07-29T11:27:10.970Z,1.23
2022-07-29T11:29:43.090Z,1.65
2022-07-29T11:32:15.738Z,2.17
2022-07-29T11:34:45.245Z,2.13
2022-07-29T11:37:13.615Z,1.92
2022-07-29T11:39:44.377Z,1.60
2022-07-29T11:42:30.483Z,1.98
2022-07-29T11:45:04.384Z,1.80
2022-07-29T11:47:51.204Z,2.10
2022-07-29T11:50:37.626Z,1.83
2022-07-29T11:53:16.264Z,1.80
2022-07-29T11:55:51.169Z,2.05
2022-07-29T12:01:14.582Z,1.70
2022-07-29T12:03:41.120Z,1.80
2022-07-29T12:06:17.594Z,1.70
2022-07-29T12:07:03.568Z,2.00
2022-07-29T12:08:45.619Z,1.60
2022-07-29T12:11:23.376Z,2.08
2022-07-29T12:13:53.756Z,2.25
2022-07-29T12:16:26.149Z,1.80
2022-07-29T12:19:00.360Z,2.08
2022-07-29T12:21:28.608Z,1.75
2022-07-29T12:23:56.003Z,1.90
2022-07-29T12:26:28.643Z,1.75
2022-07-29T12:28:55.608Z,1.65
2022-07-29T12:31:42.373Z,1.60
2022-07-29T12:34:10.278Z,1.77
2022-07-29T12:36:37.435Z,1.80
2022-07-29T12:39:04.877Z,1.63
2022-07-29T12:41:32.455Z,1.80
2022-07-29T12:43:59.108Z,1.52
2022-07-29T12:46:25.722Z,1.73
2022-07-29T12:48:57.700Z,1.58
2022-07-29T12:51:35.673Z,1.48
2022-07-29T12:54:05.223Z,1.50
2022-07-29T12:56:47.062Z,1.50
2022-07-29T12:59:21.612Z,1.80
2022-07-29T13:01:51.115Z,1.60
2022-07-29T13:04:34.333Z,1.40
2022-07-29T13:07:08.325Z,1.73
2022-07-29T13:09:44.141Z,1.55
2022-07-29T13:12:13.388Z,1.42
2022-07-29T13:14:45.682Z,1.58
2022-07-29T13:17:21.750Z,1.70
2022-07-29T13:20:15.182Z,1.70
2022-07-29T13:22:43.354Z,1.50
2022-07-29T13:25:10.637Z,1.73
2022-07-29T13:27:39.385Z,1.60
2022-07-29T13:30:08.269Z,1.35
2022-07-29T13:32:35.852Z,1.48
2022-07-29T13:35:05.751Z,2.13
2022-07-29T13:37:35.048Z,1.60
2022-07-29T13:40:05.617Z,1.52
2022-07-29T13:42:33.032Z,1.55
2022-07-29T13:45:00.110Z,1.60
2022-07-29T13:47:32.359Z,1.40
2022-07-29T13:50:03.538Z,1.58
2022-07-29T13:52:31.880Z,1.58
2022-07-29T13:54:58.514Z,1.60
2022-07-29T13:57:25.068Z,1.80
2022-07-29T13:59:54.344Z,1.60
2022-07-29T14:02:21.596Z,1.73
2022-07-29T14:04:52.841Z,1.60
2022-07-29T14:07:19.401Z,1.65
2022-07-29T14:09:45.933Z,1.60
2022-07-29T14:12:12.883Z,1.60
2022-07-29T14:14:39.646Z,1.50
2022-07-29T14:17:07.557Z,1.67
2022-07-29T14:19:36.711Z,1.80
2022-07-29T14:22:05.432Z,1.25
2022-07-29T14:24:36.973Z,1.60
2022-07-29T14:27:04.636Z,1.80
2022-07-29T14:29:37.831Z,1.65
2022-07-29T14:32:09.955Z,1.58
2022-07-29T14:34:37.549Z,1.60
2022-07-29T14:37:06.780Z,2.30
2022-07-29T14:39:36.918Z,1.40
2022-07-29T14:42:06.114Z,1.80
2022-07-29T14:44:32.598Z,1.70
2022-07-29T14:47:00.682Z,1.63
2022-07-29T14:49:27.985Z,2.05
2022-07-29T14:51:54.548Z,2.05
2022-07-29T14:54:21.113Z,2.53
2022-07-29T14:56:47.803Z,4.05
2022-07-29T14:59:14.668Z,2.92
2022-07-29T15:01:41.242Z,19.17
2022-07-29T15:04:07.816Z,15.80
2022-07-29T15:06:35.040Z,16.33
2022-07-29T15:09:01.583Z,6.80
2022-07-29T15:11:28.059Z,7.82
2022-07-29T15:13:54.552Z,5.30
2022-07-29T15:16:21.827Z,4.22
2022-07-29T15:18:48.323Z,4.30
2022-07-29T15:21:16.053Z,4.35
2022-07-29T15:23:42.538Z,3.90
2022-07-29T15:26:09.027Z,3.55
2022-07-29T15:28:35.580Z,3.67
2022-07-29T15:31:02.140Z,3.13
2022-07-29T15:33:28.640Z,2.83
2022-07-29T15:35:56.941Z,3.47
2022-07-29T15:38:28.587Z,3.10
2022-07-29T15:40:55.715Z,3.38
2022-07-29T15:43:22.325Z,3.08
2022-07-29T15:46:07.446Z,2.95
2022-07-29T15:48:34.051Z,3.00
2022-07-29T15:51:01.078Z,2.70
2022-07-29T15:53:27.624Z,2.63
2022-07-29T15:55:54.126Z,2.53
2022-07-29T15:58:20.620Z,2.70
2022-07-29T16:00:47.900Z,2.60
2022-07-29T16:03:14.881Z,2.72
2022-07-29T16:05:41.372Z,2.55
2022-07-29T16:08:08.396Z,2.60
2022-07-29T16:10:34.925Z,2.58
2022-07-29T16:13:01.767Z,2.67
2022-07-29T16:15:28.244Z,2.40
2022-07-29T16:17:55.013Z,2.28
2022-07-29T16:20:22.427Z,2.35
2022-07-29T16:22:49.196Z,2.55
2022-07-29T16:25:15.700Z,2.40
2022-07-29T16:27:42.172Z,2.40
2022-07-29T16:30:10.003Z,2.10
2022-07-29T16:32:36.551Z,2.13
2022-07-29T16:35:05.183Z,2.17
2022-07-29T16:37:35.420Z,2.60
2022-07-29T16:40:02.564Z,2.28
2022-07-29T16:42:45.474Z,2.35
2022-07-29T16:45:13.317Z,2.25
2022-07-29T16:47:39.773Z,2.00
2022-07-29T16:50:06.840Z,2.10
2022-07-29T16:52:33.724Z,1.92
2022-07-29T16:55:00.251Z,1.90
2022-07-29T16:57:27.064Z,2.03
2022-07-29T16:59:53.567Z,2.35
2022-07-29T17:02:20.152Z,2.20
2022-07-29T17:04:46.784Z,2.22
2022-07-29T17:07:13.377Z,8.43
2022-07-29T17:09:40.441Z,3.33
2022-07-29T17:12:07.170Z,3.35
2022-07-29T17:14:33.650Z,3.20
2022-07-29T17:17:02.415Z,2.20
2022-07-29T17:19:35.256Z,2.22
2022-07-29T17:22:15.536Z,2.35
2022-07-29T17:24:45.447Z,2.08
2022-07-29T17:27:12.339Z,2.03
2022-07-29T17:29:39.387Z,2.20
2022-07-29T17:32:07.670Z,2.20
2022-07-29T17:34:35.955Z,2.25
2022-07-29T17:37:02.817Z,2.33
2022-07-29T17:39:29.334Z,2.08
2022-07-29T17:41:55.937Z,2.47
2022-07-29T17:44:22.402Z,2.30
2022-07-29T17:46:49.028Z,2.40
2022-07-29T17:49:15.615Z,2.50
2022-07-29T17:51:42.155Z,3.05
2022-07-29T17:54:08.617Z,3.08
2022-07-29T17:56:35.138Z,2.50
2022-07-29T17:59:06.442Z,2.72
2022-07-29T18:01:33.861Z,2.47
2022-07-29T18:04:00.520Z,2.80
2022-07-29T18:06:27.031Z,2.40
2022-07-29T18:08:53.943Z,2.17
2022-07-29T18:11:20.436Z,2.10
2022-07-29T18:13:56.881Z,2.33
2022-07-29T18:16:23.431Z,2.30
2022-07-29T18:18:51.005Z,2.40
2022-07-29T18:21:17.469Z,2.08
2022-07-29T18:24:04.105Z,2.65
2022-07-29T18:26:30.684Z,2.35
2022-07-29T18:28:57.238Z,2.22
2022-07-29T18:31:23.767Z,2.70
2022-07-29T18:33:50.413Z,2.00
2022-07-29T18:36:18.014Z,2.55
2022-07-29T18:38:44.485Z,2.58
2022-07-29T18:41:11.441Z,2.53
2022-07-29T18:43:38.081Z,2.40
2022-07-29T18:46:05.938Z,2.40
2022-07-29T18:48:34.097Z,2.20
2022-07-29T18:51:00.594Z,2.28
2022-07-29T18:53:27.061Z,2.45
2022-07-29T18:55:57.331Z,2.40
2022-07-29T18:58:26.426Z,2.55
2022-07-29T19:00:53.029Z,2.42
2022-07-29T19:03:19.497Z,2.50
2022-07-29T19:05:46.016Z,2.42
2022-07-29T19:08:12.543Z,2.20
2022-07-29T19:10:39.014Z,2.28
2022-07-29T19:13:06.148Z,2.13
2022-07-29T19:15:32.661Z,2.17
2022-07-29T19:18:01.159Z,2.03
2022-07-29T19:20:28.372Z,2.17
2022-07-29T19:22:54.872Z,2.10
2022-07-29T19:25:23.020Z,2.00
2022-07-29T19:27:49.523Z,2.20
2022-07-29T19:30:16.065Z,2.05
2022-07-29T19:32:42.609Z,2.20
2022-07-29T19:35:24.576Z,2.17
2022-07-29T19:37:51.896Z,2.00
2022-07-29T19:40:18.641Z,1.90
2022-07-29T19:42:45.672Z,1.92
2022-07-29T19:45:13.506Z,2.00
2022-07-29T19:47:40.248Z,2.30
2022-07-29T19:50:07.467Z,1.90
2022-07-29T19:52:33.954Z,2.00
2022-07-29T19:55:06.846Z,2.03
2022-07-29T19:57:40.590Z,1.70
2022-07-29T20:00:11.253Z,2.10
2022-07-29T20:02:38.983Z,2.00
2022-07-29T20:05:06.229Z,1.83
2022-07-29T20:07:32.699Z,1.95
2022-07-29T20:09:59.378Z,2.10
2022-07-29T20:12:26.023Z,2.10
2022-07-29T20:14:52.520Z,2.08
2022-07-29T20:17:19.535Z,1.75
2022-07-29T20:19:46.468Z,2.08
2022-07-29T20:22:14.171Z,1.98
2022-07-29T20:24:47.856Z,2.00
2022-07-29T20:27:14.364Z,1.80
2022-07-29T20:29:41.178Z,1.95
2022-07-29T20:32:07.857Z,1.83
2022-07-29T20:34:34.401Z,1.92
2022-07-29T20:37:02.654Z,1.80
2022-07-29T20:39:29.562Z,1.80
2022-07-29T20:41:56.341Z,1.77
2022-07-29T20:44:24.272Z,1.77
2022-07-29T20:46:50.827Z,2.13
2022-07-29T20:49:17.441Z,1.88
2022-07-29T20:51:44.248Z,1.80
2022-07-29T20:54:11.225Z,1.92
2022-07-29T20:56:38.204Z,1.80
2022-07-29T20:59:04.745Z,2.15
2022-07-29T21:01:31.249Z,1.92
2022-07-29T21:03:57.798Z,1.75
2022-07-29T21:06:24.292Z,2.00
2022-07-29T21:08:50.772Z,1.67
2022-07-29T21:11:17.687Z,2.00
2022-07-29T21:14:04.241Z,2.00
2022-07-29T21:16:33.367Z,1.90
2022-07-29T21:18:59.839Z,2.05
2022-07-29T21:21:26.946Z,1.88
2022-07-29T21:23:53.443Z,2.25
2022-07-29T21:26:19.904Z,2.00
2022-07-29T21:28:46.433Z,2.20
2022-07-29T21:31:17.166Z,1.98
2022-07-29T21:33:45.950Z,2.08
2022-07-29T21:36:46.559Z,2.13
2022-07-29T21:39:06.740Z,2.25
2022-07-29T21:41:34.319Z,2.10
2022-07-29T21:44:01.385Z,1.90
2022-07-29T21:46:28.102Z,1.90
2022-07-29T21:48:54.755Z,1.92
2022-07-29T21:51:21.268Z,2.10
2022-07-29T21:53:49.016Z,2.00
2022-07-29T21:56:15.502Z,2.00
2022-07-29T21:58:44.524Z,1.90
2022-07-29T22:01:11.114Z,2.10
2022-07-29T22:03:37.704Z,1.85
2022-07-29T22:06:04.454Z,1.90
2022-07-29T22:08:30.953Z,2.28
2022-07-29T22:10:57.431Z,1.85
2022-07-29T22:13:23.928Z,2.00
2022-07-29T22:15:50.460Z,2.30
2022-07-29T22:18:20.718Z,2.03
2022-07-29T22:20:48.885Z,2.20
2022-07-29T22:23:15.373Z,2.28
2022-07-29T22:25:41.901Z,2.22
2022-07-29T22:28:08.379Z,2.30
2022-07-29T22:30:34.907Z,2.67
2022-07-29T22:33:01.408Z,2.10
2022-07-29T22:35:27.988Z,2.45
2022-07-29T22:37:54.464Z,2.13
2022-07-29T22:40:21.084Z,2.35
2022-07-29T22:42:47.601Z,2.03
2022-07-29T22:45:14.177Z,2.20
2022-07-29T22:47:48.375Z,2.10
2022-07-29T22:50:15.807Z,2.10
2022-07-29T22:52:42.338Z,2.28
2022-07-29T22:55:09.263Z,2.10
2022-07-29T22:57:35.768Z,2.10
2022-07-29T23:00:02.505Z,2.13
2022-07-29T23:02:29.271Z,2.20
2022-07-29T23:04:56.547Z,1.80
2022-07-29T23:07:23.561Z,2.40
2022-07-29T23:09:50.252Z,2.20
2022-07-29T23:12:16.819Z,2.30
2022-07-29T23:14:43.981Z,2.13
2022-07-29T23:17:10.551Z,2.30
2022-07-29T23:19:37.143Z,1.95
2022-07-29T23:22:03.673Z,2.20
2022-07-29T23:24:30.126Z,2.28
2022-07-29T23:26:56.599Z,2.20
2022-07-29T23:29:23.118Z,2.20
2022-07-29T23:31:49.725Z,2.20
2022-07-29T23:34:16.314Z,2.15
2022-07-29T23:36:42.843Z,1.90
2022-07-29T23:39:11.355Z,2.10
2022-07-29T23:41:38.437Z,2.20
2022-07-29T23:44:05.165Z,2.20
2022-07-29T23:46:31.737Z,2.00
2022-07-29T23:48:58.445Z,2.15
2022-07-29T23:51:25.025Z,2.30
2022-07-29T23:53:53.287Z,2.10
2022-07-29T23:56:21.081Z,1.88
2022-07-29T23:58:47.595Z,2.20
